Time;durP1;ratioP1;P1;durP2;ratioP2;P2;SDS_P1;SDS_P2;PMS_P1;PMS_P2;Temp;Humidity;BMP_temperature;BMP_pressure;BME280_temperature;BME280_humidity;BME280_pressure;Samples;Min_cycle;Max_cycle;Signal;HPM_P1;HPM_P2
2021/12/23 00:02:38;;;;;;;0.25;0.25;;;;;;;-4.85;100.00;101364.50;4999126;28;20062;-79
2021/12/23 00:05:12;;;;;;;0.30;0.30;;;;;;;-4.87;100.00;101374.47;4992399;28;20050;-79
2021/12/23 00:07:45;;;;;;;0.30;0.30;;;;;;;-4.96;100.00;101354.19;4998792;28;20045;-79
2021/12/23 00:10:13;;;;;;;0.30;0.30;;;;;;;-4.93;100.00;101345.09;4993295;28;20047;-80
2021/12/23 00:12:48;;;;;;;0.20;0.20;;;;;;;-4.89;100.00;101333.97;4993173;28;20050;-80
2021/12/23 00:15:29;;;;;;;0.30;0.30;;;;;;;-4.93;100.00;101329.16;4987776;28;20054;-79
2021/12/23 00:18:02;;;;;;;0.20;0.20;;;;;;;-4.92;100.00;101333.47;4989703;28;20100;-79
2021/12/23 00:23:26;;;;;;;0.28;0.28;;;;;;;-5.00;100.00;101313.88;5017153;28;20054;-78
2021/12/23 00:26:00;;;;;;;0.30;0.30;;;;;;;-5.01;100.00;101309.56;4989949;28;20045;-79
2021/12/23 00:28:35;;;;;;;0.30;0.30;;;;;;;-5.01;100.00;101309.56;4992982;28;20049;-79
2021/12/23 00:31:08;;;;;;;0.30;0.30;;;;;;;-4.92;100.00;101310.41;4993158;28;20058;-81
2021/12/23 00:33:43;;;;;;;0.30;0.30;;;;;;;-4.91;100.00;101300.63;4989846;28;20668;-79
2021/12/23 00:36:16;;;;;;;0.30;0.30;;;;;;;-4.94;100.00;101312.41;4992727;28;20042;-79
2021/12/23 00:38:49;;;;;;;0.20;0.20;;;;;;;-4.91;100.00;101303.28;4995731;28;20050;-78
2021/12/23 00:41:28;;;;;;;0.20;0.20;;;;;;;-5.02;100.00;101291.97;5002463;28;20062;-80
2021/12/23 00:44:03;;;;;;;0.30;0.30;;;;;;;-5.00;100.00;101297.97;4991150;28;20789;-79
2021/12/23 00:46:31;;;;;;;0.30;0.30;;;;;;;-4.93;100.00;101295.47;5019305;28;20487;-79
2021/12/23 00:48:59;;;;;;;0.28;0.28;;;;;;;-4.89;100.00;101291.50;4994526;28;20041;-79
2021/12/23 00:51:32;;;;;;;0.20;0.20;;;;;;;-4.91;100.00;101292.69;4992004;28;20051;-79
2021/12/23 00:54:06;;;;;;;0.30;0.30;;;;;;;-4.97;100.00;101283.53;4996504;28;20406;-80
2021/12/23 00:56:40;;;;;;;0.22;0.22;;;;;;;-4.85;100.00;101292.00;4991782;28;20046;-80
2021/12/23 00:59:15;;;;;;;0.30;0.30;;;;;;;-4.87;100.00;101281.56;4988006;28;20070;-81
2021/12/23 01:01:48;;;;;;;0.20;0.20;;;;;;;-4.90;100.00;101268.63;4993846;28;20419;-79
2021/12/23 01:04:16;;;;;;;0.30;0.30;;;;;;;-4.79;100.00;101275.44;4994701;28;20045;-79
2021/12/23 01:06:45;;;;;;;0.30;0.30;;;;;;;-4.85;100.00;101273.41;4989842;28;20054;-79
2021/12/23 01:09:18;;;;;;;0.30;0.30;;;;;;;-4.84;100.00;101261.81;5003988;28;20054;-80
2021/12/23 01:11:53;;;;;;;0.20;0.20;;;;;;;-4.84;100.00;101259.16;4987222;28;20057;-79
2021/12/23 01:14:29;;;;;;;0.20;0.20;;;;;;;-4.85;100.00;101249.53;4991494;28;20054;-80
2021/12/23 01:17:23;;;;;;;0.20;0.20;;;;;;;-4.87;100.00;101241.72;5003119;28;20054;-78
2021/12/23 01:19:57;;;;;;;0.20;0.20;;;;;;;-4.92;100.00;101232.59;4991344;28;20045;-81
2021/12/23 01:22:30;;;;;;;0.30;0.30;;;;;;;-4.91;100.00;101216.50;4989788;28;20511;-79
2021/12/23 01:25:04;;;;;;;0.25;0.25;;;;;;;-4.80;100.00;101226.78;4994834;28;20038;-79
2021/12/23 01:27:32;;;;;;;0.35;0.35;;;;;;;-4.85;100.00;101218.47;4990687;28;20065;-79
2021/12/23 01:30:08;;;;;;;0.30;0.30;;;;;;;-4.91;100.00;101208.53;4997852;28;20058;-80
2021/12/23 01:32:36;;;;;;;0.30;0.30;;;;;;;-5.02;100.00;101183.13;4991465;28;20055;-79
2021/12/23 01:35:11;;;;;;;0.30;0.30;;;;;;;-4.92;100.00;101182.16;4994224;28;20042;-79
2021/12/23 01:37:39;;;;;;;0.30;0.30;;;;;;;-4.84;100.00;101184.81;4992729;28;20057;-79
2021/12/23 01:40:15;;;;;;;0.30;0.30;;;;;;;-4.83;100.00;101195.28;4992807;28;20494;-79
2021/12/23 01:42:44;;;;;;;0.22;0.22;;;;;;;-4.84;100.00;101190.94;4991671;28;20050;-80
2021/12/23 01:45:16;;;;;;;0.30;0.30;;;;;;;-4.74;100.00;101192.63;4989274;28;20046;-80
2021/12/23 01:47:50;;;;;;;0.30;0.30;;;;;;;-4.76;100.00;101184.81;4996481;28;20049;-79
2021/12/23 01:50:27;;;;;;;0.30;0.30;;;;;;;-4.70;100.00;101188.63;4994361;28;20042;-79
2021/12/23 01:53:00;;;;;;;0.20;0.20;;;;;;;-4.69;100.00;101183.16;4987239;28;20035;-79
2021/12/23 01:55:36;;;;;;;0.30;0.30;;;;;;;-4.70;100.00;101186.78;4992050;28;20050;-79
2021/12/23 01:58:06;;;;;;;0.30;0.30;;;;;;;-4.72;100.00;101187.94;5025220;28;20474;-80
2021/12/23 02:00:44;;;;;;;0.30;0.30;;;;;;;-4.76;100.00;101179.50;4997494;28;20049;-79
2021/12/23 02:03:17;;;;;;;0.32;0.32;;;;;;;-4.70;100.00;101189.44;4996214;28;20492;-80
2021/12/23 02:05:45;;;;;;;0.30;0.30;;;;;;;-4.70;100.00;101180.66;4992441;28;20054;-79
2021/12/23 02:08:14;;;;;;;0.30;0.30;;;;;;;-4.79;100.00;101171.88;4988806;28;20058;-79
2021/12/23 02:10:44;;;;;;;0.40;0.40;;;;;;;-4.73;100.00;101175.69;4996942;28;20045;-79
2021/12/23 02:13:17;;;;;;;0.30;0.30;;;;;;;-4.70;100.00;101176.16;4998195;28;20038;-79
2021/12/23 02:15:51;;;;;;;0.30;0.30;;;;;;;-4.78;100.00;101161.09;4999802;28;20043;-80
2021/12/23 02:18:21;;;;;;;0.30;0.30;;;;;;;-4.74;100.00;101166.06;4995428;28;20053;-79
2021/12/23 02:20:51;;;;;;;0.22;0.22;;;;;;;-4.60;100.00;101183.97;5009409;28;20057;-79
2021/12/23 02:23:19;;;;;;;0.30;0.30;;;;;;;-4.63;100.00;101185.16;5004149;28;20407;-79
2021/12/23 02:25:47;;;;;;;0.30;0.30;;;;;;;-4.65;100.00;101184.47;5007115;28;20054;-79
2021/12/23 02:28:23;;;;;;;0.30;0.30;;;;;;;-4.71;100.00;101171.88;4996076;28;20054;-79
2021/12/23 02:30:56;;;;;;;0.30;0.30;;;;;;;-4.65;100.00;101181.00;4992102;28;20046;-79
2021/12/23 02:33:30;;;;;;;0.30;0.30;;;;;;;-4.70;100.00;101157.59;4997991;28;20061;-79
2021/12/23 02:36:05;;;;;;;0.40;0.40;;;;;;;-4.66;100.00;101161.56;4989799;28;20052;-80
2021/12/23 02:38:33;;;;;;;0.30;0.30;;;;;;;-4.64;100.00;101150.75;5001063;28;20062;-80
2021/12/23 02:41:07;;;;;;;0.30;0.30;;;;;;;-4.69;100.00;101131.88;4992886;28;20046;-78
2021/12/23 02:43:36;;;;;;;0.43;0.30;;;;;;;-4.64;100.00;101133.03;5009114;28;20038;-79
2021/12/23 02:46:05;;;;;;;0.30;0.30;;;;;;;-4.75;100.00;101121.91;5023468;28;20543;-78
2021/12/23 02:48:35;;;;;;;0.30;0.30;;;;;;;-4.69;100.00;101124.72;4997394;28;20046;-79
2021/12/23 02:51:07;;;;;;;0.30;0.30;;;;;;;-4.83;100.00;101107.66;4990272;28;20043;-78
2021/12/23 02:53:41;;;;;;;0.30;0.30;;;;;;;-4.65;100.00;101109.28;5002808;28;20034;-80
2021/12/23 02:56:15;;;;;;;0.20;0.20;;;;;;;-4.66;100.00;101110.28;4989419;28;20055;-79
2021/12/23 02:58:45;;;;;;;0.30;0.30;;;;;;;-4.69;100.00;101114.09;4998267;28;20042;-79
2021/12/23 03:01:21;;;;;;;0.40;0.40;;;;;;;-4.66;100.00;101112.94;4997288;28;20050;-78
2021/12/23 03:03:49;;;;;;;0.30;0.30;;;;;;;-4.67;100.00;101103.31;4994932;28;20050;-79
2021/12/23 03:06:20;;;;;;;0.40;0.40;;;;;;;-4.64;100.00;101092.34;4991704;28;20046;-80
2021/12/23 03:08:49;;;;;;;0.30;0.30;;;;;;;-4.68;100.00;101093.69;4993337;28;20064;-78
2021/12/23 03:11:25;;;;;;;0.20;0.20;;;;;;;-4.86;100.00;101054.91;4995438;28;20090;-81
2021/12/23 03:13:59;;;;;;;0.30;0.30;;;;;;;-4.69;100.00;101076.91;4990918;28;20054;-79
2021/12/23 03:16:34;;;;;;;0.30;0.30;;;;;;;-4.66;100.00;101079.22;5024179;28;20058;-78
2021/12/23 03:19:08;;;;;;;0.28;0.28;;;;;;;-4.69;100.00;101066.31;4994852;28;20061;-78
2021/12/23 03:21:44;;;;;;;0.30;0.30;;;;;;;-4.63;100.00;101070.09;4992318;28;20854;-78
2021/12/23 03:24:19;;;;;;;0.30;0.30;;;;;;;-4.63;100.00;101064.78;4997909;28;20498;-79
2021/12/23 03:26:47;;;;;;;0.35;0.35;;;;;;;-4.61;100.00;101049.53;4993577;28;21935;-78
2021/12/23 03:29:20;;;;;;;0.30;0.30;;;;;;;-4.57;100.00;101045.53;4992871;28;20386;-78
2021/12/23 03:31:53;;;;;;;0.30;0.30;;;;;;;-4.61;100.00;101033.59;4998747;28;20042;-79
2021/12/23 03:34:27;;;;;;;0.20;0.20;;;;;;;-4.70;100.00;101037.25;4991799;28;20057;-79
2021/12/23 03:36:56;;;;;;;0.40;0.40;;;;;;;-4.57;100.00;101040.22;4991908;28;20042;-78
2021/12/23 03:39:25;;;;;;;0.30;0.30;;;;;;;-4.68;100.00;101046.72;4994891;28;20062;-79
2021/12/23 03:41:54;;;;;;;0.30;0.30;;;;;;;-4.60;100.00;101053.81;4993928;28;20411;-79
2021/12/23 03:44:27;;;;;;;0.40;0.40;;;;;;;-4.62;100.00;101048.69;4994937;28;20050;-79
2021/12/23 03:47:00;;;;;;;0.30;0.30;;;;;;;-4.56;100.00;101047.16;4992611;28;20057;-79
2021/12/23 03:49:33;;;;;;;0.30;0.30;;;;;;;-4.53;100.00;101032.72;4990860;28;20053;-79
2021/12/23 03:52:03;;;;;;;0.32;0.32;;;;;;;-4.54;100.00;101026.59;4997887;28;20042;-79
2021/12/23 03:54:31;;;;;;;0.22;0.22;;;;;;;-4.51;100.00;101015.63;4991575;28;20077;-79
2021/12/23 03:57:00;;;;;;;0.30;0.30;;;;;;;-4.56;100.00;101004.66;4991742;28;20057;-78
2021/12/23 03:59:33;;;;;;;0.30;0.30;;;;;;;-4.50;100.00;101003.16;4988756;28;20081;-79
2021/12/23 04:02:06;;;;;;;0.32;0.32;;;;;;;-4.57;100.00;101002.19;4998547;28;20046;-78
2021/12/23 04:04:40;;;;;;;0.25;0.25;;;;;;;-4.68;100.00;100974.16;4997127;28;20053;-80
2021/12/23 04:07:16;;;;;;;0.30;0.30;;;;;;;-4.53;100.00;100990.22;4994727;28;20352;-80
2021/12/23 04:09:44;;;;;;;0.22;0.22;;;;;;;-4.53;100.00;100977.78;4992261;28;20050;-80
2021/12/23 04:12:17;;;;;;;0.20;0.20;;;;;;;-4.50;100.00;100981.88;4996366;28;20068;-79
2021/12/23 04:14:51;;;;;;;0.40;0.40;;;;;;;-4.51;100.00;100964.31;4992484;28;20058;-79
2021/12/23 04:17:24;;;;;;;0.30;0.30;;;;;;;-4.47;100.00;100960.31;4991394;28;20053;-79
2021/12/23 04:20:09;;;;;;;0.50;0.30;;;;;;;-4.50;100.00;100944.72;4990364;28;20038;-79
2021/12/23 04:22:45;;;;;;;0.30;0.30;;;;;;;-4.42;100.00;100949.97;4990835;28;20069;-78
2021/12/23 04:25:20;;;;;;;0.40;0.40;;;;;;;-4.45;100.00;100950.34;4991325;28;20558;-78
2021/12/23 04:27:57;;;;;;;0.40;0.40;;;;;;;-4.45;100.00;100959.16;4994116;28;20089;-79
2021/12/23 04:30:31;;;;;;;0.30;0.30;;;;;;;-4.44;100.00;100947.50;4991153;28;20069;-79
2021/12/23 04:33:04;;;;;;;0.25;0.25;;;;;;;-4.47;100.00;100942.53;4987511;28;20050;-79
2021/12/23 04:35:37;;;;;;;0.20;0.20;;;;;;;-4.49;100.00;100933.94;4992987;28;20038;-78
2021/12/23 04:38:12;;;;;;;0.30;0.30;;;;;;;-4.41;100.00;100943.66;5001112;28;20050;-78
2021/12/23 04:40:45;;;;;;;0.30;0.30;;;;;;;-4.40;100.00;100940.00;4992650;28;20046;-79
2021/12/23 04:43:18;;;;;;;0.20;0.20;;;;;;;-4.36;100.00;100927.22;4990911;28;20050;-79
2021/12/23 04:45:52;;;;;;;0.20;0.20;;;;;;;-4.40;100.00;100920.59;4993136;28;20058;-79
2021/12/23 04:48:25;;;;;;;0.30;0.30;;;;;;;-4.43;100.00;100913.81;4988727;28;20058;-78
2021/12/23 04:50:59;;;;;;;0.38;0.38;;;;;;;-4.40;100.00;100910.78;4987978;28;20054;-79
2021/12/23 04:53:33;;;;;;;0.30;0.30;;;;;;;-4.38;100.00;100910.63;4992367;28;20042;-78
2021/12/23 04:56:07;;;;;;;0.25;0.25;;;;;;;-4.39;100.00;100915.13;4987947;28;20046;-79
2021/12/23 04:58:35;;;;;;;0.20;0.20;;;;;;;-4.42;100.00;100909.31;4996806;28;20062;-78
2021/12/23 05:01:17;;;;;;;0.30;0.30;;;;;;;-4.46;100.00;100900.84;4985166;28;20062;-79
2021/12/23 05:03:50;;;;;;;0.30;0.30;;;;;;;-4.42;100.00;100902.16;5006284;28;20054;-79
2021/12/23 05:06:23;;;;;;;0.32;0.32;;;;;;;-4.42;100.00;100898.69;4990218;28;20038;-78
2021/12/23 05:08:58;;;;;;;0.30;0.30;;;;;;;-4.40;100.00;100897.50;4995408;28;20491;-78
2021/12/23 05:11:26;;;;;;;0.20;0.20;;;;;;;-4.35;100.00;100902.28;4989370;28;20050;-80
2021/12/23 05:13:59;;;;;;;0.30;0.30;;;;;;;-4.61;100.00;100859.13;4989753;28;20050;-79
2021/12/23 05:16:32;;;;;;;0.30;0.30;;;;;;;-4.37;100.00;100877.75;4993237;28;20467;-80
2021/12/23 05:19:06;;;;;;;0.20;0.20;;;;;;;-4.45;100.00;100871.47;4992878;28;20038;-78
2021/12/23 05:21:39;;;;;;;0.30;0.30;;;;;;;-4.43;100.00;100866.00;4993966;28;20057;-78
2021/12/23 05:24:14;;;;;;;0.20;0.20;;;;;;;-4.34;100.00;100872.06;4991986;28;20396;-80
2021/12/23 05:26:47;;;;;;;0.30;0.30;;;;;;;-4.34;100.00;100874.72;4997609;28;20053;-79
2021/12/23 05:29:20;;;;;;;0.28;0.28;;;;;;;-4.37;100.00;100869.75;4990977;28;20057;-80
2021/12/23 05:31:53;;;;;;;0.30;0.30;;;;;;;-4.40;100.00;100854.19;5006082;28;20055;-78
2021/12/23 05:34:21;;;;;;;0.20;0.20;;;;;;;-4.36;100.00;100853.66;5020528;28;20046;-79
2021/12/23 05:36:55;;;;;;;0.30;0.30;;;;;;;-4.38;100.00;100850.31;4987619;28;20038;-79
2021/12/23 05:39:29;;;;;;;0.30;0.30;;;;;;;-4.34;100.00;100840.19;4992478;28;20505;-78
2021/12/23 05:41:57;;;;;;;0.20;0.20;;;;;;;-4.34;100.00;100833.03;4997215;28;20045;-79
2021/12/23 05:44:31;;;;;;;0.20;0.20;;;;;;;-4.25;100.00;100840.94;4988853;28;20046;-79
2021/12/23 05:47:05;;;;;;;0.40;0.40;;;;;;;-4.37;100.00;100846.66;4990614;28;20477;-78
2021/12/23 05:49:38;;;;;;;0.30;0.30;;;;;;;-4.37;100.00;100851.16;4988777;28;20387;-79
2021/12/23 05:52:07;;;;;;;0.32;0.32;;;;;;;-4.49;100.00;100842.78;5022362;28;20050;-79
2021/12/23 05:54:42;;;;;;;0.28;0.28;;;;;;;-4.51;100.00;100829.66;4986917;28;20053;-79
2021/12/23 05:57:15;;;;;;;0.40;0.40;;;;;;;-4.37;100.00;100819.28;4989505;28;20057;-79
2021/12/23 05:59:49;;;;;;;0.20;0.20;;;;;;;-4.36;100.00;100805.00;4988427;28;20480;-79
2021/12/23 06:02:22;;;;;;;0.47;0.30;;;;;;;-4.29;100.00;100798.78;4994788;28;20051;-79
2021/12/23 06:04:55;;;;;;;0.20;0.20;;;;;;;-4.39;100.00;100766.34;4991102;28;20465;-78
2021/12/23 06:07:23;;;;;;;0.30;0.30;;;;;;;-4.36;100.00;100770.47;4994606;28;20069;-79
2021/12/23 06:09:58;;;;;;;0.30;0.30;;;;;;;-4.34;100.00;100741.88;4991174;28;20062;-78
2021/12/23 06:12:27;;;;;;;0.28;0.28;;;;;;;-4.25;100.00;100729.31;4990578;28;20411;-79
2021/12/23 06:14:55;;;;;;;0.30;0.30;;;;;;;-4.29;100.00;100720.91;5004419;28;20051;-80
2021/12/23 06:17:29;;;;;;;0.20;0.20;;;;;;;-4.28;100.00;100717.22;4993198;28;20511;-78
2021/12/23 06:20:03;;;;;;;0.30;0.30;;;;;;;-4.26;100.00;100717.88;4988451;28;20476;-79
2021/12/23 06:22:34;;;;;;;0.30;0.30;;;;;;;-4.22;100.00;100743.09;4995755;28;20054;-79
2021/12/23 06:25:06;;;;;;;0.20;0.20;;;;;;;-4.21;100.00;100735.94;4991273;28;20498;-80
2021/12/23 06:27:41;;;;;;;0.28;0.28;;;;;;;-4.14;100.00;100724.41;4989266;28;20430;-80
2021/12/23 06:30:16;;;;;;;0.30;0.30;;;;;;;-4.24;100.00;100694.59;4992580;28;20054;-79
2021/12/23 06:32:51;;;;;;;0.20;0.20;;;;;;;-4.17;100.00;100716.81;4991697;28;20074;-79
2021/12/23 06:35:21;;;;;;;0.20;0.20;;;;;;;-4.20;100.00;100711.00;4987443;28;20059;-79
2021/12/23 06:37:50;;;;;;;0.30;0.30;;;;;;;-4.14;100.00;100723.59;4988112;28;20061;-78
2021/12/23 06:40:24;;;;;;;0.20;0.20;;;;;;;-4.28;100.00;100685.34;4997895;28;20054;-80
2021/12/23 06:42:57;;;;;;;0.30;0.30;;;;;;;-4.11;100.00;100691.31;4993498;28;20412;-79
2021/12/23 06:45:31;;;;;;;0.20;0.20;;;;;;;-4.24;100.00;100696.44;4999971;28;20043;-78
2021/12/23 06:48:05;;;;;;;0.20;0.20;;;;;;;-4.21;100.00;100680.97;4995169;28;20045;-78
2021/12/23 06:50:38;;;;;;;0.38;0.38;;;;;;;-4.24;100.00;100686.63;4992012;28;20050;-78
2021/12/23 06:53:06;;;;;;;0.20;0.20;;;;;;;-4.19;100.00;100675.47;4992082;28;20057;-78
2021/12/23 06:55:41;;;;;;;0.20;0.20;;;;;;;-4.19;100.00;100655.03;4994203;28;20050;-80
2021/12/23 06:58:15;;;;;;;0.20;0.20;;;;;;;-4.20;100.00;100665.84;4990944;28;20042;-79
2021/12/23 07:00:48;;;;;;;0.20;0.20;;;;;;;-4.05;100.00;100664.00;4991428;28;20050;-79
2021/12/23 07:03:24;;;;;;;0.20;0.20;;;;;;;-4.14;100.00;100651.84;4989161;28;20542;-79
2021/12/23 07:06:05;;;;;;;0.30;0.30;;;;;;;-4.11;100.00;100646.94;4994214;28;20046;-79
2021/12/23 07:08:36;;;;;;;0.25;0.25;;;;;;;-4.06;100.00;100651.75;4993534;28;20049;-79
2021/12/23 07:11:11;;;;;;;0.30;0.30;;;;;;;-4.11;100.00;100631.00;4993501;28;20600;-78
2021/12/23 07:13:39;;;;;;;0.30;0.30;;;;;;;-4.14;100.00;100604.81;4994564;28;20073;-79
2021/12/23 07:16:13;;;;;;;0.22;0.22;;;;;;;-4.01;100.00;100636.03;4993757;28;20379;-79
2021/12/23 07:18:41;;;;;;;0.20;0.20;;;;;;;-4.03;100.00;100631.91;4995663;28;20054;-80
2021/12/23 07:21:14;;;;;;;0.20;0.20;;;;;;;-4.07;100.00;100633.28;4994729;28;20054;-79
2021/12/23 07:23:48;;;;;;;0.22;0.22;;;;;;;-4.16;100.00;100613.97;4990593;28;20050;-79
2021/12/23 07:26:22;;;;;;;0.68;0.30;;;;;;;-4.04;100.00;100622.31;4996590;28;20088;-79
2021/12/23 07:28:55;;;;;;;0.20;0.20;;;;;;;-4.01;100.00;100614.78;4989482;28;20050;-80
2021/12/23 07:31:29;;;;;;;0.20;0.20;;;;;;;-4.05;100.00;100625.97;5022685;28;20050;-78
2021/12/23 07:33:57;;;;;;;0.20;0.20;;;;;;;-4.02;100.00;100615.81;4989617;28;20058;-79
2021/12/23 07:36:31;;;;;;;0.20;0.20;;;;;;;-3.98;100.00;100618.91;4991770;28;20405;-81
2021/12/23 07:39:06;;;;;;;0.20;0.20;;;;;;;-4.00;100.00;100627.06;4992519;28;20414;-79
2021/12/23 07:41:41;;;;;;;0.20;0.20;;;;;;;-4.01;100.00;100617.44;5001538;28;20054;-80
2021/12/23 07:44:20;;;;;;;0.20;0.20;;;;;;;-3.97;100.00;100624.03;5015262;28;20046;-80
2021/12/23 07:46:53;;;;;;;0.30;0.30;;;;;;;-3.94;100.00;100617.53;5006964;28;20057;-79
2021/12/23 07:49:21;;;;;;;0.30;0.30;;;;;;;-3.94;100.00;100620.19;4998913;28;20057;-78
2021/12/23 07:51:50;;;;;;;0.20;0.20;;;;;;;-3.99;100.00;100595.97;4992555;28;20057;-79
2021/12/23 07:54:18;;;;;;;0.20;0.20;;;;;;;-3.90;100.00;100596.72;4994677;28;20063;-78
2021/12/23 07:56:48;;;;;;;0.30;0.30;;;;;;;-4.03;100.00;100584.91;4992009;28;20415;-79
2021/12/23 07:59:16;;;;;;;0.22;0.22;;;;;;;-3.93;100.00;100596.06;4997492;28;20054;-79
2021/12/23 08:01:49;;;;;;;0.30;0.30;;;;;;;-3.88;100.00;100603.50;4991110;28;20066;-79
2021/12/23 08:04:23;;;;;;;0.30;0.30;;;;;;;-3.83;100.00;100597.59;4989672;28;20408;-80
2021/12/23 08:06:57;;;;;;;0.20;0.20;;;;;;;-3.82;100.00;100604.59;4995072;28;20049;-79
2021/12/23 08:09:31;;;;;;;0.20;0.20;;;;;;;-3.78;100.00;100612.00;4993167;28;20061;-79
2021/12/23 08:12:05;;;;;;;0.20;0.20;;;;;;;-3.77;100.00;100610.13;4990287;28;20484;-78
2021/12/23 08:14:38;;;;;;;0.20;0.20;;;;;;;-3.77;100.00;100604.81;4993154;28;20053;-81
2021/12/23 08:17:07;;;;;;;0.30;0.30;;;;;;;-3.67;100.00;100615.19;4986056;28;20049;-82
2021/12/23 08:19:40;;;;;;;0.20;0.20;;;;;;;-3.70;100.00;100615.53;4993264;28;20453;-83
2021/12/23 08:22:13;;;;;;;0.20;0.20;;;;;;;-3.65;100.00;100613.97;4996887;28;20062;-82
2021/12/23 08:24:46;;;;;;;0.30;0.20;;;;;;;-3.65;100.00;100613.97;4996659;28;20042;-82
2021/12/23 08:27:25;;;;;;;0.30;0.30;;;;;;;-3.66;100.00;100617.66;4988673;28;20430;-82
2021/12/23 08:29:58;;;;;;;0.25;0.25;;;;;;;-3.60;100.00;100613.41;4994318;28;20414;-85
2021/12/23 08:32:26;;;;;;;0.20;0.20;;;;;;;-3.52;100.00;100615.97;4988637;28;20054;-80
2021/12/23 08:35:00;;;;;;;0.20;0.20;;;;;;;-3.56;100.00;100604.06;4988056;28;20058;-82
2021/12/23 08:37:33;;;;;;;0.20;0.20;;;;;;;-3.59;100.00;100597.28;4990159;28;20049;-82
2021/12/23 08:40:02;;;;;;;0.20;0.20;;;;;;;-3.54;100.00;100614.50;4985224;28;20042;-82
2021/12/23 08:42:37;;;;;;;0.20;0.20;;;;;;;-3.48;100.00;100614.56;4984929;28;20046;-81
2021/12/23 08:45:10;;;;;;;0.20;0.20;;;;;;;-3.48;100.00;100613.72;4983651;28;20046;-82
2021/12/23 08:47:39;;;;;;;0.20;0.20;;;;;;;-3.49;100.00;100612.91;4981271;28;20054;-82
2021/12/23 08:50:15;;;;;;;0.20;0.20;;;;;;;-3.52;100.00;100615.13;4984272;28;20057;-82
2021/12/23 08:52:43;;;;;;;0.15;0.15;;;;;;;-3.42;100.00;100605.00;4992167;28;20038;-82
2021/12/23 08:55:17;;;;;;;0.22;0.22;;;;;;;-3.44;100.00;100605.19;4994185;28;20042;-82
2021/12/23 08:57:47;;;;;;;3.13;0.30;;;;;;;-3.40;100.00;100602.97;4993266;28;20061;-82
2021/12/23 09:00:21;;;;;;;0.30;0.30;;;;;;;-3.43;100.00;100596.19;4987961;28;20042;-82
2021/12/23 09:02:50;;;;;;;0.20;0.20;;;;;;;-3.42;100.00;100597.03;4987914;28;20065;-82
2021/12/23 09:05:24;;;;;;;0.20;0.20;;;;;;;-3.50;100.00;100589.97;4986988;28;20054;-81
2021/12/23 09:07:57;;;;;;;0.20;0.20;;;;;;;-3.68;100.00;100555.84;4990549;28;20038;-82
2021/12/23 09:10:26;;;;;;;0.20;0.20;;;;;;;-3.55;100.00;100541.03;4987769;28;20058;-81
2021/12/23 09:13:02;;;;;;;0.30;0.30;;;;;;;-3.43;100.00;100552.81;4986248;28;20057;-82
2021/12/23 09:15:35;;;;;;;0.13;0.13;;;;;;;-3.41;100.00;100537.47;4994577;28;20426;-82
2021/12/23 09:18:03;;;;;;;0.20;0.20;;;;;;;-3.38;100.00;100568.19;4992680;28;20537;-81
2021/12/23 09:20:37;;;;;;;0.20;0.20;;;;;;;-3.39;100.00;100566.56;4988126;28;20046;-81
2021/12/23 09:23:10;;;;;;;0.30;0.30;;;;;;;-3.34;100.00;100567.63;4988076;28;20546;-82
2021/12/23 09:25:45;;;;;;;0.30;0.30;;;;;;;-3.37;100.00;100549.41;4987553;28;21856;-82
2021/12/23 09:28:37;;;;;;;0.30;0.30;;;;;;;-3.29;100.00;100540.44;4993034;28;20050;-81
2021/12/23 09:33:56;;;;;;;0.30;0.30;;;;;;;-3.28;100.00;100520.78;4988222;28;20054;-82
2021/12/23 09:36:29;;;;;;;0.25;0.25;;;;;;;-3.42;100.00;100493.25;4987662;28;20050;-81
2021/12/23 09:38:57;;;;;;;0.38;0.30;;;;;;;-3.17;100.00;100530.91;4991818;28;20054;-81
2021/12/23 09:41:26;;;;;;;0.25;0.25;;;;;;;-3.23;100.00;100520.22;4986425;28;20054;-81
2021/12/23 09:44:02;;;;;;;0.22;0.22;;;;;;;-3.31;100.00;100522.00;4988459;28;20054;-81
2021/12/23 09:46:30;;;;;;;0.20;0.20;;;;;;;-3.27;100.00;100519.78;4997683;28;20042;-82
2021/12/23 09:48:59;;;;;;;0.20;0.20;;;;;;;-3.21;100.00;100510.22;4992162;28;20073;-81
2021/12/23 09:51:33;;;;;;;0.20;0.20;;;;;;;-3.20;100.00;100525.13;4998948;28;20054;-81
2021/12/23 09:54:04;;;;;;;0.20;0.20;;;;;;;-3.10;100.00;100507.00;4991358;28;20062;-82
2021/12/23 09:56:38;;;;;;;0.43;0.30;;;;;;;-3.04;100.00;100513.41;4995009;28;20054;-82
2021/12/23 09:59:14;;;;;;;0.20;0.20;;;;;;;-2.94;100.00;100512.03;4995229;28;20073;-81
2021/12/23 10:01:48;;;;;;;0.20;0.20;;;;;;;-2.89;100.00;100513.28;4992326;28;20085;-82
2021/12/23 10:04:21;;;;;;;0.20;0.20;;;;;;;-2.89;100.00;100495.47;4993108;28;20053;-81
2021/12/23 10:06:58;;;;;;;0.20;0.20;;;;;;;-2.90;100.00;100488.47;4989933;28;20054;-81
2021/12/23 10:09:42;;;;;;;0.30;0.30;;;;;;;-2.92;100.00;100474.56;4996488;28;20430;-81
2021/12/23 10:33:12;;;;;;;0.20;0.20;;;;;;;-2.84;100.00;100415.81;4991476;28;20057;-80
2021/12/23 10:38:41;;;;;;;0.22;0.22;;;;;;;-2.81;100.00;100420.75;4988136;28;20046;-82
2021/12/23 10:41:17;;;;;;;0.20;0.20;;;;;;;-2.92;100.00;100390.16;4988312;28;20050;-83
2021/12/23 10:43:54;;;;;;;0.20;0.20;;;;;;;-2.78;100.00;100388.38;4990712;28;20061;-82
2021/12/23 10:46:25;;;;;;;0.20;0.20;;;;;;;-2.67;100.00;100357.69;4990232;28;20050;-82
2021/12/23 10:49:09;;;;;;;0.22;0.22;;;;;;;-2.56;100.00;100354.44;4990808;28;20042;-82
2021/12/23 10:51:58;;;;;;;0.30;0.30;;;;;;;-2.68;100.00;100326.75;4992790;28;20065;-81
2021/12/23 11:00:21;;;;;;;0.20;0.20;;;;;;;-2.53;100.00;100309.75;4990711;28;20053;-81
2021/12/23 11:03:06;;;;;;;0.30;0.30;;;;;;;-2.61;100.00;100297.44;4988754;28;20057;-81
2021/12/23 11:05:47;;;;;;;0.20;0.20;;;;;;;-2.60;100.00;100275.13;4984468;28;20050;-82
2021/12/23 11:08:29;;;;;;;0.30;0.30;;;;;;;-2.62;100.00;100255.88;4988407;28;20046;-84
2021/12/23 11:11:34;;;;;;;0.30;0.30;;;;;;;-2.57;100.00;100248.06;4984499;28;20054;-84
2021/12/23 11:37:15;;;;;;;0.30;0.30;;;;;;;-2.61;100.00;100253.00;4987699;28;20058;-82
2021/12/23 11:40:05;;;;;;;0.30;0.30;;;;;;;-2.76;100.00;100260.34;4987520;28;20062;-82
2021/12/23 11:43:01;;;;;;;0.20;0.20;;;;;;;-2.69;100.00;100268.34;4989697;28;20057;-81
2021/12/23 11:45:34;;;;;;;0.20;0.20;;;;;;;-2.59;100.00;100269.59;4988339;28;20050;-82
2021/12/23 11:48:08;;;;;;;0.20;0.20;;;;;;;-2.60;100.00;100264.47;4990125;28;20058;-81
2021/12/23 11:50:53;;;;;;;0.30;0.30;;;;;;;-2.58;100.00;100251.78;4987655;28;20087;-82
2021/12/23 11:53:27;;;;;;;0.20;0.20;;;;;;;-2.64;100.00;100233.91;4982114;28;20065;-82
2021/12/23 11:56:04;;;;;;;0.30;0.30;;;;;;;-2.59;100.00;100250.13;4979618;28;20062;-82
2021/12/23 11:58:33;;;;;;;0.20;0.20;;;;;;;-2.65;100.00;100235.78;4983526;28;20073;-81
2021/12/23 12:01:09;;;;;;;0.30;0.30;;;;;;;-2.72;100.00;100223.47;4986889;28;20887;-81
2021/12/23 12:03:52;;;;;;;0.20;0.20;;;;;;;-2.65;100.00;100238.44;4982068;28;20065;-81
2021/12/23 12:06:29;;;;;;;0.20;0.20;;;;;;;-2.62;100.00;100235.38;4983825;28;20054;-82
2021/12/23 12:09:17;;;;;;;0.30;0.30;;;;;;;-2.49;100.00;100234.53;4988182;28;20053;-81
2021/12/23 12:12:06;;;;;;;0.30;0.30;;;;;;;-2.39;100.00;100215.47;4985038;28;20050;-81
2021/12/23 12:14:44;;;;;;;0.20;0.20;;;;;;;-2.58;100.00;100209.94;4983348;28;20077;-82
2021/12/23 12:17:34;;;;;;;0.30;0.30;;;;;;;-2.49;100.00;100213.22;4982213;28;20261;-82
2021/12/23 12:20:21;;;;;;;0.20;0.20;;;;;;;-2.43;100.00;100220.41;4982222;28;20065;-82
2021/12/23 12:22:55;;;;;;;0.40;0.40;;;;;;;-2.50;100.00;100194.78;4982313;28;20045;-81
2021/12/23 12:25:47;;;;;;;0.20;0.20;;;;;;;-2.45;100.00;100200.31;4982712;28;20058;-81
2021/12/23 12:28:21;;;;;;;0.20;0.20;;;;;;;-2.46;100.00;100186.19;4986558;28;20503;-82
2021/12/23 12:30:52;;;;;;;0.20;0.20;;;;;;;-2.44;100.00;100188.66;4988688;28;20094;-80
2021/12/23 12:33:55;;;;;;;0.28;0.28;;;;;;;-2.45;100.00;100192.31;4988021;28;20054;-83
2021/12/23 12:36:29;;;;;;;0.30;0.30;;;;;;;-2.37;100.00;100178.78;4977228;28;20673;-81
2021/12/23 12:39:25;;;;;;;0.25;0.25;;;;;;;-2.44;100.00;100172.66;4983834;28;20053;-81
2021/12/23 12:42:04;;;;;;;0.20;0.20;;;;;;;-2.34;100.00;100161.56;4986939;28;20054;-81
2021/12/23 12:44:47;;;;;;;0.20;0.20;;;;;;;-2.35;100.00;100143.94;4982141;28;20157;-82
2021/12/23 12:47:30;;;;;;;0.20;0.20;;;;;;;-2.42;100.00;100141.28;4981207;28;20162;-81